Time;durP1;ratioP1;P1;durP2;ratioP2;P2;SDS_P1;SDS_P2;PMS_P1;PMS_P2;Temp;Humidity;BMP_temperature;BMP_pressure;BME280_temperature;BME280_humidity;BME280_pressure;Samples;Min_cycle;Max_cycle;Signal;HPM_P1;HPM_P2
2021/07/19 00:00:28;;;;;;;0.68;0.68;;;11.80;99.90;;;;;;5002099;28;20261;-72
2021/07/19 00:02:54;;;;;;;0.68;0.68;;;11.80;99.90;;;;;;5003413;28;20386;-72
2021/07/19 00:05:22;;;;;;;0.50;0.50;;;11.70;99.90;;;;;;5006920;28;20742;-72
2021/07/19 00:07:48;;;;;;;0.60;0.60;;;11.60;99.90;;;;;;5023282;28;20988;-71
2021/07/19 00:10:16;;;;;;;1.13;0.93;;;11.60;99.90;;;;;;5021766;28;20293;-72
2021/07/19 00:12:42;;;;;;;0.55;0.55;;;11.60;99.90;;;;;;5002652;28;20197;-72
2021/07/19 00:15:12;;;;;;;0.60;0.60;;;11.70;99.90;;;;;;5024568;28;20304;-71
2021/07/19 00:17:40;;;;;;;0.60;0.60;;;11.80;99.90;;;;;;5024688;28;20233;-72
2021/07/19 00:20:06;;;;;;;0.60;0.60;;;11.80;99.90;;;;;;5024638;28;20306;-71
2021/07/19 00:22:32;;;;;;;0.52;0.52;;;11.90;99.90;;;;;;5022320;28;20684;-71
2021/07/19 00:24:58;;;;;;;0.60;0.60;;;11.90;99.90;;;;;;5024292;28;20209;-72
2021/07/19 00:27:24;;;;;;;0.50;0.50;;;12.00;99.90;;;;;;5011176;28;20211;-72
2021/07/19 00:29:49;;;;;;;0.60;0.60;;;12.00;99.90;;;;;;5018929;28;20194;-71
2021/07/19 00:32:15;;;;;;;0.50;0.50;;;12.00;99.90;;;;;;5026751;28;20201;-71
2021/07/19 00:34:41;;;;;;;0.50;0.50;;;12.10;99.90;;;;;;5002157;28;20194;-71
2021/07/19 00:37:06;;;;;;;0.50;0.50;;;12.10;99.90;;;;;;5022136;28;20201;-72
2021/07/19 00:39:32;;;;;;;0.60;0.60;;;12.10;99.90;;;;;;5026066;28;20567;-71
2021/07/19 00:41:58;;;;;;;0.50;0.50;;;12.10;99.90;;;;;;5021104;28;20199;-72
2021/07/19 00:44:24;;;;;;;0.60;0.60;;;12.00;99.90;;;;;;5024475;28;20296;-71
2021/07/19 00:46:54;;;;;;;0.60;0.60;;;12.10;99.90;;;;;;5005508;28;20217;-71
2021/07/19 00:49:21;;;;;;;0.60;0.60;;;12.20;99.90;;;;;;5022338;28;20344;-72
2021/07/19 00:51:48;;;;;;;0.60;0.60;;;12.20;99.90;;;;;;5022746;28;20236;-72
2021/07/19 00:54:17;;;;;;;0.60;0.60;;;12.20;99.90;;;;;;4999567;28;20220;-72
2021/07/19 00:56:44;;;;;;;0.60;0.60;;;12.20;99.90;;;;;;5021133;28;20192;-72
2021/07/19 00:59:14;;;;;;;0.75;0.70;;;12.20;99.90;;;;;;5025838;28;20200;-72
2021/07/19 01:01:42;;;;;;;0.52;0.52;;;12.10;99.90;;;;;;5026042;28;20563;-71
2021/07/19 01:04:10;;;;;;;0.70;0.70;;;12.00;99.90;;;;;;5020896;28;20213;-71
2021/07/19 01:06:37;;;;;;;0.60;0.60;;;11.90;99.90;;;;;;5026837;28;20225;-72
2021/07/19 01:09:05;;;;;;;0.60;0.60;;;11.80;99.90;;;;;;5010486;28;20200;-69
2021/07/19 01:11:31;;;;;;;0.60;0.60;;;11.70;99.90;;;;;;5012083;28;20201;-70
2021/07/19 01:13:57;;;;;;;0.60;0.60;;;11.70;99.90;;;;;;5008358;28;20194;-70
2021/07/19 01:16:23;;;;;;;0.60;0.60;;;11.60;99.90;;;;;;5011172;28;20305;-71
2021/07/19 01:18:49;;;;;;;0.60;0.60;;;11.50;99.90;;;;;;5025959;28;20205;-72
2021/07/19 01:21:30;;;;;;;0.60;0.60;;;11.40;99.90;;;;;;5009487;28;20229;-70
2021/07/19 01:24:40;;;;;;;0.60;0.60;;;11.40;99.90;;;;;;5028265;28;20222;-70
2021/07/19 01:27:32;;;;;;;0.60;0.60;;;11.40;99.90;;;;;;5024269;28;20222;-70
2021/07/19 01:30:00;;;;;;;0.50;0.50;;;11.50;99.90;;;;;;5026162;28;20583;-69
2021/07/19 01:32:27;;;;;;;0.60;0.60;;;11.50;99.90;;;;;;5013898;28;20239;-72
2021/07/19 01:34:54;;;;;;;0.60;0.60;;;11.40;99.90;;;;;;5026657;28;20284;-71
2021/07/19 01:37:22;;;;;;;0.60;0.60;;;11.40;99.90;;;;;;5032396;28;20643;-72
2021/07/19 01:39:48;;;;;;;0.63;0.63;;;11.40;99.90;;;;;;5027123;28;20686;-73
2021/07/19 01:42:15;;;;;;;0.50;0.50;;;11.30;99.90;;;;;;5027607;28;20198;-72
2021/07/19 01:44:41;;;;;;;0.57;0.57;;;11.20;99.90;;;;;;5012312;28;20575;-70
2021/07/19 01:47:08;;;;;;;0.60;0.60;;;11.10;99.90;;;;;;5009086;28;20213;-73
2021/07/19 01:49:35;;;;;;;0.60;0.60;;;11.00;99.90;;;;;;5026483;28;20190;-73
2021/07/19 01:52:02;;;;;;;0.60;0.60;;;11.00;99.90;;;;;;5029047;28;20179;-72
2021/07/19 01:54:29;;;;;;;0.60;0.60;;;11.00;99.90;;;;;;5010217;28;20198;-72
2021/07/19 01:56:57;;;;;;;0.60;0.60;;;11.00;99.90;;;;;;5023280;28;20386;-72
2021/07/19 01:59:25;;;;;;;0.60;0.60;;;11.10;99.90;;;;;;5025144;28;20195;-72
2021/07/19 02:01:51;;;;;;;0.60;0.60;;;11.10;99.90;;;;;;5010844;28;20193;-72
2021/07/19 02:04:17;;;;;;;0.60;0.60;;;11.20;99.90;;;;;;5015678;28;20242;-71
2021/07/19 02:06:42;;;;;;;0.50;0.50;;;11.20;99.90;;;;;;5028558;28;20431;-72
2021/07/19 02:09:11;;;;;;;0.60;0.60;;;11.20;99.90;;;;;;5027372;28;20226;-73
2021/07/19 02:11:37;;;;;;;0.60;0.60;;;11.20;99.90;;;;;;5024773;28;20256;-72
2021/07/19 02:14:07;;;;;;;0.60;0.60;;;11.20;99.90;;;;;;5010700;28;20652;-72
2021/07/19 02:16:34;;;;;;;0.60;0.60;;;11.20;99.90;;;;;;5035616;28;20204;-72
2021/07/19 02:19:02;;;;;;;0.80;0.80;;;11.20;99.90;;;;;;5030453;28;20206;-72
2021/07/19 02:21:28;;;;;;;0.65;0.65;;;11.20;99.90;;;;;;5029860;28;20238;-72
2021/07/19 02:23:55;;;;;;;0.60;0.60;;;11.20;99.90;;;;;;5004738;28;20198;-72
2021/07/19 02:26:22;;;;;;;0.60;0.60;;;11.20;99.90;;;;;;5030918;28;20219;-72
2021/07/19 02:28:49;;;;;;;0.57;0.57;;;11.20;99.90;;;;;;5008184;28;20199;-72
2021/07/19 02:31:17;;;;;;;0.50;0.50;;;11.10;99.90;;;;;;5023586;28;20795;-73
2021/07/19 02:33:44;;;;;;;1.10;0.65;;;11.10;99.90;;;;;;5012038;28;20201;-72
2021/07/19 02:36:12;;;;;;;0.60;0.60;;;11.10;99.90;;;;;;5013530;28;20294;-72
2021/07/19 02:38:39;;;;;;;0.60;0.60;;;11.10;99.90;;;;;;5031160;28;20204;-72
2021/07/19 02:41:07;;;;;;;0.55;0.55;;;11.10;99.90;;;;;;5027595;28;20220;-73
2021/07/19 02:43:33;;;;;;;0.60;0.60;;;11.10;99.90;;;;;;5011827;28;20194;-71
2021/07/19 02:46:00;;;;;;;0.80;0.80;;;11.10;99.90;;;;;;5010169;28;20225;-72
2021/07/19 02:48:36;;;;;;;0.60;0.60;;;11.10;99.90;;;;;;5026383;28;20195;-72
2021/07/19 02:51:03;;;;;;;0.68;0.68;;;11.20;99.90;;;;;;5025068;28;20224;-72
2021/07/19 02:53:31;;;;;;;0.60;0.60;;;11.20;99.90;;;;;;5025641;28;20206;-72
2021/07/19 02:56:02;;;;;;;0.60;0.60;;;11.30;99.90;;;;;;5027664;28;20193;-72
2021/07/19 02:58:28;;;;;;;0.85;0.85;;;11.30;99.90;;;;;;5030034;28;20194;-72
2021/07/19 03:00:54;;;;;;;0.60;0.60;;;11.30;99.90;;;;;;5023866;28;20216;-72
2021/07/19 03:03:34;;;;;;;0.60;0.60;;;11.30;99.90;;;;;;5028491;28;20370;-71
2021/07/19 03:06:01;;;;;;;0.57;0.57;;;11.30;99.90;;;;;;5025938;28;20233;-72
2021/07/19 03:08:33;;;;;;;0.60;0.60;;;11.30;99.90;;;;;;5027728;28;20297;-72
2021/07/19 03:11:01;;;;;;;0.57;0.57;;;11.30;99.90;;;;;;5020385;28;20203;-71
2021/07/19 03:13:29;;;;;;;1.85;0.98;;;11.30;99.90;;;;;;5020891;28;20194;-72
2021/07/19 03:15:56;;;;;;;0.50;0.50;;;11.30;99.90;;;;;;5025375;28;20194;-72
2021/07/19 03:18:23;;;;;;;0.57;0.57;;;11.30;99.90;;;;;;5007404;28;20213;-71
2021/07/19 03:20:50;;;;;;;0.68;0.68;;;11.40;99.90;;;;;;5024958;28;20199;-73
2021/07/19 03:23:18;;;;;;;0.60;0.60;;;11.40;99.90;;;;;;5024434;28;20229;-72
2021/07/19 03:25:45;;;;;;;0.57;0.57;;;11.40;99.90;;;;;;5022107;28;20219;-72
2021/07/19 03:28:12;;;;;;;0.60;0.60;;;11.40;99.90;;;;;;5024190;28;20193;-72
2021/07/19 03:30:40;;;;;;;0.60;0.60;;;11.40;99.90;;;;;;5021313;28;20197;-72
2021/07/19 03:33:07;;;;;;;0.60;0.60;;;11.40;99.90;;;;;;5008174;28;20203;-71
2021/07/19 03:35:33;;;;;;;0.70;0.70;;;11.40;99.90;;;;;;5017760;28;20198;-71
2021/07/19 03:38:00;;;;;;;0.75;0.75;;;11.40;99.90;;;;;;5024755;28;20203;-71
2021/07/19 03:40:28;;;;;;;0.55;0.55;;;11.40;99.90;;;;;;5011538;28;20293;-72
2021/07/19 03:42:57;;;;;;;0.52;0.52;;;11.30;99.90;;;;;;5029297;28;20212;-71
2021/07/19 03:45:23;;;;;;;0.50;0.50;;;11.30;99.90;;;;;;5022524;28;20395;-71
2021/07/19 03:47:50;;;;;;;0.60;0.60;;;11.30;99.90;;;;;;5009330;28;20306;-72
2021/07/19 03:50:16;;;;;;;0.60;0.60;;;11.30;99.90;;;;;;5025491;28;20205;-71
2021/07/19 03:52:43;;;;;;;0.50;0.50;;;11.30;99.90;;;;;;5023876;28;20241;-72
2021/07/19 03:55:12;;;;;;;1.13;1.02;;;11.30;99.90;;;;;;5008112;28;20637;-71
2021/07/19 03:57:38;;;;;;;0.50;0.50;;;11.40;99.90;;;;;;5021073;28;20201;-71
2021/07/19 04:00:15;;;;;;;0.50;0.50;;;11.40;99.90;;;;;;5010261;28;20578;-72
2021/07/19 04:02:44;;;;;;;0.60;0.60;;;11.50;99.90;;;;;;5029192;28;20205;-71
2021/07/19 04:05:14;;;;;;;0.50;0.50;;;11.50;99.90;;;;;;5024128;28;20255;-72
2021/07/19 04:07:43;;;;;;;1.15;0.93;;;11.60;99.90;;;;;;5024687;28;20237;-71
2021/07/19 04:10:11;;;;;;;0.60;0.60;;;11.70;99.90;;;;;;5018445;28;20237;-71
2021/07/19 04:12:41;;;;;;;0.50;0.50;;;11.70;99.90;;;;;;5004557;28;20198;-71
2021/07/19 04:15:08;;;;;;;0.50;0.50;;;11.80;99.90;;;;;;5024358;28;20606;-69
2021/07/19 04:17:33;;;;;;;0.50;0.50;;;11.90;99.90;;;;;;5002901;28;20247;-69
2021/07/19 04:20:02;;;;;;;0.52;0.52;;;12.00;99.90;;;;;;5001458;28;20731;-68
2021/07/19 04:22:30;;;;;;;0.50;0.50;;;12.30;99.90;;;;;;5021450;28;20210;-68
2021/07/19 04:24:55;;;;;;;0.50;0.50;;;12.50;99.90;;;;;;5005696;28;20197;-68
2021/07/19 04:27:21;;;;;;;0.50;0.50;;;12.80;99.90;;;;;;5024294;28;20571;-67
2021/07/19 04:29:49;;;;;;;0.50;0.50;;;13.10;99.90;;;;;;5024814;28;20198;-69
2021/07/19 04:32:19;;;;;;;1.23;1.13;;;13.60;99.90;;;;;;5020717;28;20228;-68
2021/07/19 04:34:45;;;;;;;0.40;0.40;;;14.00;99.90;;;;;;5026494;28;20539;-70
2021/07/19 04:37:11;;;;;;;0.40;0.40;;;14.30;99.90;;;;;;5023638;28;20198;-68
2021/07/19 04:39:37;;;;;;;0.40;0.40;;;14.70;99.90;;;;;;5018156;28;20229;-68
2021/07/19 04:42:07;;;;;;;1.30;0.98;;;14.70;99.90;;;;;;5028138;28;20281;-69
2021/07/19 04:44:34;;;;;;;0.40;0.40;;;14.90;99.90;;;;;;5023256;28;20214;-70
2021/07/19 04:47:00;;;;;;;0.40;0.40;;;15.10;99.90;;;;;;5024929;28;20241;-71
2021/07/19 04:49:27;;;;;;;0.45;0.45;;;15.10;99.90;;;;;;5022821;28;20611;-69
2021/07/19 04:51:53;;;;;;;0.40;0.40;;;15.00;99.90;;;;;;4999269;28;20194;-69
2021/07/19 04:54:23;;;;;;;1.02;0.95;;;14.70;99.90;;;;;;5027660;28;20602;-69
2021/07/19 04:56:51;;;;;;;0.70;0.70;;;14.40;99.90;;;;;;5020514;28;20230;-68
2021/07/19 04:59:19;;;;;;;0.50;0.50;;;14.60;99.90;;;;;;5014463;28;20202;-69
2021/07/19 05:01:49;;;;;;;0.40;0.40;;;14.90;99.90;;;;;;5011789;28;20240;-69
2021/07/19 05:04:17;;;;;;;0.40;0.40;;;14.90;99.90;;;;;;5013751;28;20201;-69
2021/07/19 05:06:47;;;;;;;0.40;0.40;;;15.00;99.90;;;;;;5018927;28;20229;-69
2021/07/19 05:09:15;;;;;;;0.40;0.40;;;15.00;99.90;;;;;;5008143;28;20202;-69
2021/07/19 05:11:42;;;;;;;0.40;0.40;;;15.10;99.90;;;;;;5010839;28;20692;-70
2021/07/19 05:14:09;;;;;;;0.40;0.40;;;14.80;99.90;;;;;;5011785;28;20206;-69
2021/07/19 05:16:36;;;;;;;0.40;0.40;;;14.80;99.90;;;;;;5013564;28;20198;-68
2021/07/19 05:19:03;;;;;;;0.40;0.40;;;14.70;99.90;;;;;;5018813;28;20415;-69
2021/07/19 05:21:33;;;;;;;0.40;0.40;;;14.80;99.90;;;;;;5010032;28;20206;-69
2021/07/19 05:23:59;;;;;;;0.40;0.40;;;14.80;99.90;;;;;;5010421;28;20198;-69
2021/07/19 05:26:24;;;;;;;0.43;0.43;;;14.80;99.90;;;;;;5014224;28;20268;-68
2021/07/19 05:28:50;;;;;;;0.50;0.50;;;14.70;99.90;;;;;;5015733;28;20191;-70
2021/07/19 05:31:16;;;;;;;0.40;0.40;;;14.60;99.90;;;;;;5016489;28;20195;-70
2021/07/19 05:33:41;;;;;;;0.40;0.40;;;15.10;99.90;;;;;;5019998;28;20194;-70
2021/07/19 05:36:10;;;;;;;0.40;0.40;;;15.30;99.90;;;;;;5014036;28;20194;-70
2021/07/19 05:38:36;;;;;;;0.30;0.30;;;15.40;99.90;;;;;;5014777;28;20205;-70
2021/07/19 05:41:02;;;;;;;0.40;0.40;;;15.80;99.90;;;;;;5015265;28;20214;-70
2021/07/19 05:43:27;;;;;;;0.40;0.40;;;16.20;99.90;;;;;;5012650;28;20605;-70
2021/07/19 05:45:53;;;;;;;0.32;0.32;;;16.40;99.90;;;;;;5017674;28;20204;-70
2021/07/19 05:48:19;;;;;;;0.40;0.40;;;16.50;99.90;;;;;;5009588;28;20199;-70
2021/07/19 05:50:44;;;;;;;0.45;0.45;;;16.40;99.90;;;;;;5018652;28;20197;-69
2021/07/19 05:53:11;;;;;;;0.40;0.40;;;16.40;99.90;;;;;;5021950;28;20213;-70
2021/07/19 05:55:36;;;;;;;0.30;0.30;;;16.10;99.90;;;;;;5018479;28;20214;-70
2021/07/19 05:58:03;;;;;;;0.63;0.43;;;16.30;99.90;;;;;;5024341;28;20204;-70
2021/07/19 06:00:29;;;;;;;0.40;0.40;;;16.70;99.90;;;;;;5011079;28;20314;-71
2021/07/19 06:02:55;;;;;;;0.30;0.30;;;16.80;99.90;;;;;;5024290;28;20336;-70
2021/07/19 06:05:21;;;;;;;0.40;0.40;;;17.20;99.90;;;;;;5014966;28;20243;-70
2021/07/19 06:07:47;;;;;;;0.30;0.30;;;17.70;99.90;;;;;;4998878;28;20221;-71
2021/07/19 06:10:14;;;;;;;0.30;0.30;;;18.00;99.90;;;;;;4981620;28;20199;-70
2021/07/19 06:12:40;;;;;;;0.30;0.30;;;18.10;99.90;;;;;;5000704;28;20199;-70
2021/07/19 06:15:09;;;;;;;0.40;0.40;;;17.50;99.90;;;;;;5002196;28;20252;-70
2021/07/19 06:17:36;;;;;;;0.30;0.30;;;17.10;99.90;;;;;;5003592;28;20225;-70
2021/07/19 06:20:08;;;;;;;0.40;0.40;;;16.60;99.90;;;;;;4982711;28;20661;-69
2021/07/19 06:22:35;;;;;;;0.40;0.40;;;16.50;99.90;;;;;;5002058;28;20550;-70
2021/07/19 06:25:01;;;;;;;0.73;0.73;;;16.50;99.90;;;;;;4983121;28;20198;-69
2021/07/19 06:27:27;;;;;;;0.40;0.40;;;16.70;99.90;;;;;;5003630;28;20233;-70
2021/07/19 06:29:52;;;;;;;0.30;0.30;;;16.80;99.90;;;;;;5003302;28;20219;-71
2021/07/19 06:32:18;;;;;;;0.45;0.45;;;17.30;99.90;;;;;;5002787;28;20244;-70
2021/07/19 06:34:44;;;;;;;0.35;0.35;;;17.40;99.90;;;;;;5002524;28;20294;-69
2021/07/19 06:37:09;;;;;;;0.30;0.30;;;17.40;99.90;;;;;;5001721;28;20667;-70
2021/07/19 06:39:35;;;;;;;0.30;0.30;;;17.00;99.90;;;;;;5000724;28;20695;-71
2021/07/19 06:42:01;;;;;;;0.40;0.40;;;16.80;99.90;;;;;;4983556;28;20199;-70
2021/07/19 06:44:26;;;;;;;0.30;0.30;;;16.60;99.90;;;;;;5001493;28;20292;-70
2021/07/19 06:46:56;;;;;;;0.30;0.30;;;16.40;99.90;;;;;;5002616;28;20245;-70
2021/07/19 06:49:22;;;;;;;0.30;0.30;;;16.40;99.90;;;;;;5002438;28;20187;-71
2021/07/19 06:51:48;;;;;;;0.40;0.40;;;16.40;99.90;;;;;;4985366;28;20290;-71
2021/07/19 06:54:15;;;;;;;0.30;0.30;;;17.00;99.90;;;;;;4983669;28;20288;-71
2021/07/19 06:56:40;;;;;;;0.32;0.32;;;17.40;99.90;;;;;;4999210;28;20265;-70
2021/07/19 06:59:07;;;;;;;0.30;0.30;;;17.60;99.90;;;;;;5000511;28;20994;-72
2021/07/19 07:01:33;;;;;;;0.30;0.30;;;17.90;99.90;;;;;;4979676;28;20617;-70
2021/07/19 07:03:59;;;;;;;0.30;0.30;;;17.80;99.90;;;;;;4999914;28;20685;-69
2021/07/19 07:06:25;;;;;;;0.43;0.43;;;17.40;99.90;;;;;;5003721;28;20342;-70
2021/07/19 07:08:54;;;;;;;0.30;0.30;;;17.60;99.90;;;;;;4985033;28;20198;-70
2021/07/19 07:11:21;;;;;;;0.30;0.30;;;18.00;99.90;;;;;;4998264;28;20603;-70
2021/07/19 07:13:47;;;;;;;0.30;0.30;;;18.10;99.90;;;;;;5000648;28;20195;-70
2021/07/19 07:16:13;;;;;;;0.30;0.30;;;18.20;99.90;;;;;;4999063;28;20203;-71
2021/07/19 07:18:38;;;;;;;0.30;0.30;;;18.40;99.90;;;;;;5002962;28;20205;-70
2021/07/19 07:21:04;;;;;;;0.20;0.20;;;18.90;99.90;;;;;;5001088;28;20202;-71
2021/07/19 07:23:30;;;;;;;0.30;0.30;;;19.20;99.90;;;;;;4998907;28;20253;-71
2021/07/19 07:25:56;;;;;;;0.30;0.30;;;19.20;99.90;;;;;;5001988;28;21385;-70
2021/07/19 07:28:21;;;;;;;0.30;0.30;;;19.60;99.90;;;;;;5002414;28;20206;-71
2021/07/19 07:30:47;;;;;;;0.20;0.20;;;19.60;98.80;;;;;;4993287;28;20199;-71
2021/07/19 07:33:13;;;;;;;0.47;0.28;;;19.40;99.90;;;;;;4999027;28;20322;-71
2021/07/19 07:35:40;;;;;;;0.45;0.45;;;19.10;99.90;;;;;;4998528;28;20290;-71
2021/07/19 07:38:07;;;;;;;0.43;0.43;;;18.90;99.90;;;;;;4995548;28;20237;-71
2021/07/19 07:40:33;;;;;;;0.50;0.50;;;19.00;99.90;;;;;;4999467;28;20627;-71
2021/07/19 07:42:58;;;;;;;0.38;0.30;;;19.20;99.90;;;;;;4999906;28;20583;-71
2021/07/19 07:45:24;;;;;;;0.22;0.22;;;19.60;99.50;;;;;;4984238;28;20207;-70
2021/07/19 07:47:50;;;;;;;0.30;0.30;;;19.90;99.20;;;;;;5001443;28;20226;-71
2021/07/19 07:50:15;;;;;;;0.20;0.20;;;20.60;98.00;;;;;;5004016;28;20205;-71
2021/07/19 07:52:41;;;;;;;0.20;0.20;;;20.60;97.10;;;;;;4999571;28;20666;-71
2021/07/19 07:55:08;;;;;;;0.28;0.28;;;20.10;97.40;;;;;;5003184;28;20563;-70
2021/07/19 07:57:33;;;;;;;0.20;0.20;;;20.10;97.40;;;;;;5001346;28;20283;-71
2021/07/19 08:00:00;;;;;;;0.30;0.30;;;20.10;97.40;;;;;;4998644;28;20272;-71
2021/07/19 08:02:25;;;;;;;0.20;0.20;;;20.10;96.60;;;;;;4996357;28;20553;-71
2021/07/19 08:04:51;;;;;;;0.20;0.20;;;20.50;96.40;;;;;;5000125;28;20213;-70
2021/07/19 08:07:17;;;;;;;0.20;0.20;;;20.90;93.10;;;;;;5014171;28;20221;-70
2021/07/19 08:09:42;;;;;;;0.35;0.35;;;21.00;95.20;;;;;;5017171;28;20197;-71
2021/07/19 08:12:08;;;;;;;0.30;0.30;;;20.90;94.60;;;;;;5022476;28;20268;-71
2021/07/19 08:14:34;;;;;;;0.20;0.20;;;20.90;93.90;;;;;;5014743;28;20225;-71
2021/07/19 08:17:00;;;;;;;0.20;0.20;;;20.70;93.20;;;;;;5016752;28;20202;-71
2021/07/19 08:19:32;;;;;;;0.20;0.20;;;20.60;95.80;;;;;;5019875;28;20791;-71
2021/07/19 08:21:58;;;;;;;0.30;0.30;;;20.90;95.10;;;;;;5023547;28;20197;-71
2021/07/19 08:24:24;;;;;;;0.20;0.20;;;21.40;93.40;;;;;;5014162;28;20724;-71
2021/07/19 08:26:50;;;;;;;0.30;0.30;;;21.30;93.00;;;;;;5018672;28;20210;-72
2021/07/19 08:29:15;;;;;;;0.20;0.20;;;21.70;93.60;;;;;;5015499;28;20339;-70
2021/07/19 08:31:44;;;;;;;0.20;0.20;;;21.80;92.00;;;;;;5014311;28;20206;-71
2021/07/19 08:34:10;;;;;;;0.20;0.20;;;21.80;91.10;;;;;;5018061;28;20205;-71
2021/07/19 08:36:36;;;;;;;0.20;0.20;;;21.80;90.90;;;;;;5018639;28;20198;-70
2021/07/19 08:39:04;;;;;;;0.20;0.20;;;21.80;90.80;;;;;;5016940;28;20648;-70
2021/07/19 08:41:30;;;;;;;0.25;0.25;;;21.80;93.50;;;;;;5015622;28;20199;-71
2021/07/19 08:43:58;;;;;;;0.63;0.57;;;22.00;92.40;;;;;;5018999;28;20651;-72
2021/07/19 08:46:24;;;;;;;0.30;0.30;;;21.80;91.50;;;;;;5023565;28;20256;-72
2021/07/19 08:48:52;;;;;;;0.30;0.30;;;22.20;91.10;;;;;;5021515;28;20197;-70
2021/07/19 08:51:19;;;;;;;0.40;0.40;;;22.60;91.00;;;;;;5020254;28;20580;-71
2021/07/19 08:53:45;;;;;;;0.30;0.30;;;22.20;90.20;;;;;;5015179;28;20194;-71
2021/07/19 08:56:13;;;;;;;0.20;0.20;;;22.50;91.00;;;;;;5015781;28;20251;-71
2021/07/19 08:58:41;;;;;;;0.40;0.40;;;22.70;90.90;;;;;;5017221;28;20198;-71
2021/07/19 09:01:07;;;;;;;0.20;0.20;;;22.60;90.50;;;;;;5015029;28;20279;-71
2021/07/19 09:03:32;;;;;;;0.22;0.22;;;22.60;90.80;;;;;;5021289;28;20202;-71
2021/07/19 09:05:58;;;;;;;0.20;0.20;;;22.60;91.60;;;;;;5023398;28;20230;-71
2021/07/19 09:08:24;;;;;;;0.20;0.20;;;22.60;88.00;;;;;;5016284;28;21788;-71
2021/07/19 09:10:50;;;;;;;0.38;0.38;;;22.70;91.50;;;;;;5022163;28;20531;-71
2021/07/19 09:13:17;;;;;;;0.20;0.20;;;22.40;90.40;;;;;;5020620;28;20285;-71
2021/07/19 09:15:43;;;;;;;0.10;0.10;;;22.50;90.90;;;;;;5015696;28;20233;-71
2021/07/19 09:18:09;;;;;;;0.20;0.20;;;23.00;89.90;;;;;;5017142;28;20203;-71
2021/07/19 09:20:40;;;;;;;0.28;0.28;;;23.10;86.30;;;;;;5013432;28;20634;-71
2021/07/19 09:23:08;;;;;;;0.20;0.20;;;23.00;84.90;;;;;;5018607;28;20205;-71
2021/07/19 09:25:34;;;;;;;1.17;0.68;;;22.80;88.50;;;;;;5014366;28;20281;-71
2021/07/19 09:28:06;;;;;;;0.10;0.10;;;22.60;84.80;;;;;;5026209;28;20213;-71
2021/07/19 09:30:34;;;;;;;0.10;0.10;;;22.70;85.00;;;;;;5022343;28;20794;-71
2021/07/19 09:33:10;;;;;;;0.10;0.10;;;22.90;88.10;;;;;;5022095;28;20500;-71
2021/07/19 09:35:41;;;;;;;0.20;0.20;;;22.90;83.60;;;;;;5020486;28;20204;-71
2021/07/19 09:38:13;;;;;;;0.13;0.13;;;23.20;85.90;;;;;;5020431;28;20233;-70
2021/07/19 09:40:41;;;;;;;0.32;0.22;;;23.30;83.50;;;;;;5039327;28;20208;-71
2021/07/19 09:43:17;;;;;;;1.00;0.73;;;22.90;89.00;;;;;;5021145;28;20208;-72
2021/07/19 09:45:45;;;;;;;0.20;0.20;;;22.70;86.00;;;;;;5020381;28;20308;-72
2021/07/19 09:48:12;;;;;;;0.38;0.38;;;23.10;85.60;;;;;;5020940;28;20217;-71
2021/07/19 09:50:47;;;;;;;0.10;0.10;;;23.40;86.10;;;;;;5023945;28;20199;-71
2021/07/19 09:53:13;;;;;;;0.20;0.20;;;23.70;83.30;;;;;;5022055;28;20518;-72
2021/07/19 09:55:39;;;;;;;0.10;0.10;;;23.80;82.30;;;;;;5024429;28;20673;-72
2021/07/19 09:58:05;;;;;;;0.28;0.20;;;24.10;80.60;;;;;;5018051;28;20213;-71
2021/07/19 10:00:33;;;;;;;0.20;0.20;;;23.70;77.00;;;;;;5023034;28;20612;-71
2021/07/19 10:03:13;;;;;;;0.10;0.10;;;23.00;78.30;;;;;;5028153;28;20765;-72
2021/07/19 10:05:39;;;;;;;0.10;0.10;;;22.80;83.90;;;;;;5020691;28;20226;-72
2021/07/19 10:08:05;;;;;;;0.20;0.20;;;23.30;82.10;;;;;;5026484;28;20260;-72
2021/07/19 10:10:41;;;;;;;1.25;0.95;;;23.80;80.80;;;;;;5021510;28;20225;-71
2021/07/19 10:13:09;;;;;;;0.20;0.20;;;24.10;77.30;;;;;;5026083;28;20270;-72
2021/07/19 10:15:36;;;;;;;0.38;0.38;;;24.20;78.70;;;;;;5028874;28;20636;-72
2021/07/19 10:18:09;;;;;;;0.20;0.20;;;24.60;78.40;;;;;;5026583;28;20252;-72
2021/07/19 10:20:35;;;;;;;0.20;0.20;;;24.60;76.80;;;;;;5022355;28;20536;-72
2021/07/19 10:23:02;;;;;;;0.22;0.22;;;24.70;73.10;;;;;;5025777;28;20325;-72
2021/07/19 10:25:28;;;;;;;0.22;0.22;;;23.80;81.20;;;;;;5023126;28;20224;-72
2021/07/19 10:27:54;;;;;;;0.20;0.20;;;23.80;79.50;;;;;;5026082;28;20210;-72
2021/07/19 10:30:20;;;;;;;0.20;0.20;;;24.20;78.30;;;;;;5016964;28;20604;-72
2021/07/19 10:32:46;;;;;;;0.10;0.10;;;24.50;77.40;;;;;;5032068;28;20194;-72
2021/07/19 10:35:12;;;;;;;0.45;0.45;;;24.80;78.80;;;;;;5021417;28;20206;-72
2021/07/19 10:37:41;;;;;;;0.15;0.15;;;24.60;80.60;;;;;;5017045;28;20573;-72
2021/07/19 10:40:13;;;;;;;0.10;0.10;;;24.20;77.10;;;;;;5018630;28;20195;-73
2021/07/19 10:42:43;;;;;;;0.20;0.20;;;23.80;82.00;;;;;;5017483;28;20206;-74
2021/07/19 10:45:13;;;;;;;0.30;0.30;;;23.70;84.30;;;;;;5018623;28;20205;-73
2021/07/19 10:47:54;;;;;;;0.13;0.13;;;23.80;84.60;;;;;;5011595;28;20211;-73
2021/07/19 10:50:27;;;;;;;0.10;0.10;;;24.20;83.30;;;;;;5019969;28;20254;-74
2021/07/19 10:52:59;;;;;;;0.20;0.20;;;24.60;84.60;;;;;;5014186;28;20190;-73
2021/07/19 10:55:36;;;;;;;0.20;0.20;;;25.10;82.20;;;;;;5017963;28;21035;-73
2021/07/19 10:58:07;;;;;;;0.10;0.10;;;25.50;75.30;;;;;;5015725;28;20321;-73
2021/07/19 11:00:39;;;;;;;0.13;0.13;;;25.40;74.30;;;;;;5014733;28;20208;-73
2021/07/19 11:03:13;;;;;;;0.20;0.20;;;25.50;81.30;;;;;;5019626;28;20237;-73
2021/07/19 11:05:46;;;;;;;0.10;0.10;;;25.60;75.40;;;;;;5015435;28;20218;-72
2021/07/19 11:08:26;;;;;;;0.47;0.47;;;25.40;73.60;;;;;;5017116;28;20256;-74
2021/07/19 11:10:56;;;;;;;0.20;0.20;;;25.10;76.50;;;;;;5009011;28;20194;-73
2021/07/19 11:13:34;;;;;;;0.10;0.10;;;25.00;78.50;;;;;;5015996;28;20281;-73
2021/07/19 11:16:12;;;;;;;0.10;0.10;;;25.30;77.00;;;;;;5012192;28;20243;-72
2021/07/19 11:18:38;;;;;;;0.10;0.10;;;25.90;74.20;;;;;;5016563;28;20197;-73
2021/07/19 11:21:04;;;;;;;0.38;0.38;;;27.00;75.10;;;;;;5018150;28;20236;-70
2021/07/19 11:23:38;;;;;;;0.22;0.17;;;27.30;78.40;;;;;;5021741;28;20220;-69
2021/07/19 11:26:06;;;;;;;0.17;0.17;;;27.10;73.00;;;;;;5027236;28;20204;-73
2021/07/19 11:28:42;;;;;;;0.30;0.30;;;26.70;70.10;;;;;;5023986;28;20612;-70
2021/07/19 11:31:10;;;;;;;0.22;0.22;;;26.60;68.10;;;;;;5023175;28;20563;-70
2021/07/19 11:33:44;;;;;;;0.35;0.20;;;26.30;72.50;;;;;;5026293;28;20213;-70
2021/07/19 11:36:26;;;;;;;0.10;0.10;;;26.80;71.60;;;;;;5024948;28;20774;-70
2021/07/19 11:38:56;;;;;;;0.10;0.10;;;26.50;69.70;;;;;;5018780;28;20263;-70
2021/07/19 11:41:28;;;;;;;0.10;0.10;;;26.90;70.10;;;;;;5024505;28;20225;-71
2021/07/19 11:43:57;;;;;;;0.32;0.32;;;26.50;66.20;;;;;;5018369;28;20652;-70
2021/07/19 11:46:25;;;;;;;0.15;0.15;;;25.80;70.20;;;;;;5016584;28;20225;-69
2021/07/19 11:48:56;;;;;;;0.13;0.13;;;25.70;69.90;;;;;;5023648;28;20656;-70
2021/07/19 11:51:22;;;;;;;0.10;0.10;;;26.10;71.70;;;;;;5020388;28;20546;-70
2021/07/19 11:53:48;;;;;;;0.10;0.10;;;26.20;67.80;;;;;;5024969;28;20189;-70
2021/07/19 11:56:13;;;;;;;0.22;0.22;;;26.20;68.00;;;;;;5018957;28;20340;-69
2021/07/19 11:58:53;;;;;;;0.43;0.43;;;26.00;71.30;;;;;;5016184;28;20941;-70
2021/07/19 12:01:30;;;;;;;0.25;0.25;;;25.80;69.60;;;;;;5022704;28;20231;-70
2021/07/19 12:03:58;;;;;;;0.28;0.28;;;26.10;72.10;;;;;;5014909;28;20809;-71
2021/07/19 12:06:25;;;;;;;0.15;0.13;;;27.00;69.90;;;;;;5017897;28;20230;-70
2021/07/19 12:08:53;;;;;;;0.10;0.10;;;27.40;69.00;;;;;;5015183;28;20230;-74
2021/07/19 12:11:20;;;;;;;0.52;0.32;;;27.40;68.50;;;;;;5014791;28;20604;-71
2021/07/19 12:13:46;;;;;;;0.17;0.15;;;27.40;66.60;;;;;;5015423;28;20194;-71
2021/07/19 12:16:13;;;;;;;0.52;0.35;;;27.30;66.90;;;;;;5007013;28;20726;-71
2021/07/19 12:18:50;;;;;;;0.20;0.20;;;27.50;66.10;;;;;;5014870;28;20194;-71
2021/07/19 12:21:23;;;;;;;0.10;0.10;;;27.70;66.00;;;;;;5014732;28;20196;-70
2021/07/19 12:23:54;;;;;;;0.55;0.38;;;26.80;67.50;;;;;;5011376;28;20194;-71
2021/07/19 12:26:21;;;;;;;0.10;0.10;;;26.80;67.70;;;;;;5016445;28;20224;-72
2021/07/19 12:29:00;;;;;;;0.10;0.10;;;27.00;69.80;;;;;;5016685;28;20208;-69
2021/07/19 12:31:31;;;;;;;0.10;0.10;;;26.70;67.90;;;;;;5012323;28;20633;-70
2021/07/19 12:34:05;;;;;;;0.22;0.22;;;27.40;64.90;;;;;;5021752;28;20205;-71
2021/07/19 12:36:30;;;;;;;0.20;0.20;;;27.30;65.30;;;;;;5009380;28;20754;-71
2021/07/19 12:38:56;;;;;;;0.10;0.10;;;26.70;69.40;;;;;;5019583;28;20217;-71
2021/07/19 12:41:22;;;;;;;0.65;0.30;;;26.30;67.40;;;;;;5010878;28;20568;-71
2021/07/19 12:43:48;;;;;;;0.75;0.32;;;26.00;71.30;;;;;;5017507;28;20305;-73
2021/07/19 12:46:14;;;;;;;0.10;0.10;;;26.00;68.90;;;;;;5027205;28;20251;-70
2021/07/19 12:48:48;;;;;;;0.10;0.10;;;26.10;75.80;;;;;;5024316;28;20252;-71
2021/07/19 12:51:22;;;;;;;0.45;0.30;;;27.00;71.60;;;;;;5018074;28;20198;-70